sensor_id;sensor_type;location;lat;lon;timestamp;P1;durP1;ratioP1;P2;durP2;ratioP2
4460;SDS011;2243;48.812;9.232;2022-08-25T00:00:23;3.13;;;2.93;;
4460;SDS011;2243;48.812;9.232;2022-08-25T00:02:54;6.77;;;3.40;;
4460;SDS011;2243;48.812;9.232;2022-08-25T00:05:27;3.90;;;3.50;;
4460;SDS011;2243;48.812;9.232;2022-08-25T00:08:02;3.33;;;2.90;;
4460;SDS011;2243;48.812;9.232;2022-08-25T00:10:37;2.90;;;2.80;;
4460;SDS011;2243;48.812;9.232;2022-08-25T00:13:09;3.80;;;3.47;;
4460;SDS011;2243;48.812;9.232;2022-08-25T00:15:40;3.67;;;3.47;;
4460;SDS011;2243;48.812;9.232;2022-08-25T00:18:11;6.70;;;3.60;;
4460;SDS011;2243;48.812;9.232;2022-08-25T00:20:49;3.17;;;2.80;;
4460;SDS011;2243;48.812;9.232;2022-08-25T00:23:20;4.17;;;3.83;;
4460;SDS011;2243;48.812;9.232;2022-08-25T00:25:52;3.43;;;3.23;;
4460;SDS011;2243;48.812;9.232;2022-08-25T00:28:24;4.20;;;3.80;;
4460;SDS011;2243;48.812;9.232;2022-08-25T00:30:55;3.80;;;3.50;;
4460;SDS011;2243;48.812;9.232;2022-08-25T00:33:28;3.27;;;3.00;;
4460;SDS011;2243;48.812;9.232;2022-08-25T00:36:02;3.67;;;3.47;;
4460;SDS011;2243;48.812;9.232;2022-08-25T00:38:34;3.83;;;3.63;;
4460;SDS011;2243;48.812;9.232;2022-08-25T00:41:08;4.00;;;3.53;;
4460;SDS011;2243;48.812;9.232;2022-08-25T00:46:12;3.73;;;3.20;;
4460;SDS011;2243;48.812;9.232;2022-08-25T00:48:49;3.63;;;3.33;;
4460;SDS011;2243;48.812;9.232;2022-08-25T00:51:38;4.80;;;3.67;;
4460;SDS011;2243;48.812;9.232;2022-08-25T00:54:16;7.10;;;3.80;;
4460;SDS011;2243;48.812;9.232;2022-08-25T00:56:57;3.67;;;3.47;;
4460;SDS011;2243;48.812;9.232;2022-08-25T00:59:29;3.87;;;3.57;;
4460;SDS011;2243;48.812;9.232;2022-08-25T01:02:01;4.83;;;3.77;;
4460;SDS011;2243;48.812;9.232;2022-08-25T01:04:33;4.47;;;4.17;;
4460;SDS011;2243;48.812;9.232;2022-08-25T01:07:06;4.27;;;3.87;;
4460;SDS011;2243;48.812;9.232;2022-08-25T01:09:47;4.33;;;4.03;;
4460;SDS011;2243;48.812;9.232;2022-08-25T01:12:21;3.90;;;3.60;;
4460;SDS011;2243;48.812;9.232;2022-08-25T01:14:52;4.80;;;4.37;;
4460;SDS011;2243;48.812;9.232;2022-08-25T01:17:24;4.80;;;3.73;;
4460;SDS011;2243;48.812;9.232;2022-08-25T01:19:57;5.70;;;4.03;;
4460;SDS011;2243;48.812;9.232;2022-08-25T01:22:28;4.03;;;3.73;;
4460;SDS011;2243;48.812;9.232;2022-08-25T01:25:00;4.30;;;4.00;;
4460;SDS011;2243;48.812;9.232;2022-08-25T01:27:37;4.10;;;3.80;;
4460;SDS011;2243;48.812;9.232;2022-08-25T01:30:08;7.30;;;3.83;;
4460;SDS011;2243;48.812;9.232;2022-08-25T01:32:39;4.30;;;3.90;;
4460;SDS011;2243;48.812;9.232;2022-08-25T01:35:10;4.67;;;4.23;;
4460;SDS011;2243;48.812;9.232;2022-08-25T01:37:41;7.70;;;4.13;;
4460;SDS011;2243;48.812;9.232;2022-08-25T01:40:12;3.90;;;3.60;;
4460;SDS011;2243;48.812;9.232;2022-08-25T01:43:44;4.50;;;4.00;;
4460;SDS011;2243;48.812;9.232;2022-08-25T01:45:45;5.03;;;4.63;;
4460;SDS011;2243;48.812;9.232;2022-08-25T01:48:17;4.30;;;4.00;;
4460;SDS011;2243;48.812;9.232;2022-08-25T01:50:48;3.83;;;3.60;;
4460;SDS011;2243;48.812;9.232;2022-08-25T01:53:25;5.50;;;4.23;;
4460;SDS011;2243;48.812;9.232;2022-08-25T01:56:06;5.23;;;4.20;;
4460;SDS011;2243;48.812;9.232;2022-08-25T01:58:46;4.70;;;4.30;;
4460;SDS011;2243;48.812;9.232;2022-08-25T02:01:20;6.07;;;4.57;;
4460;SDS011;2243;48.812;9.232;2022-08-25T02:03:53;4.10;;;3.80;;
4460;SDS011;2243;48.812;9.232;2022-08-25T02:06:28;4.03;;;3.63;;
4460;SDS011;2243;48.812;9.232;2022-08-25T02:09:12;4.40;;;4.00;;
4460;SDS011;2243;48.812;9.232;2022-08-25T02:11:46;9.53;;;4.70;;
4460;SDS011;2243;48.812;9.232;2022-08-25T02:14:17;4.37;;;3.37;;
4460;SDS011;2243;48.812;9.232;2022-08-25T02:16:49;5.63;;;5.10;;
4460;SDS011;2243;48.812;9.232;2022-08-25T02:19:22;5.33;;;4.83;;
4460;SDS011;2243;48.812;9.232;2022-08-25T02:21:55;4.83;;;4.43;;
4460;SDS011;2243;48.812;9.232;2022-08-25T02:24:27;5.43;;;4.80;;
4460;SDS011;2243;48.812;9.232;2022-08-25T02:26:58;5.93;;;4.10;;
4460;SDS011;2243;48.812;9.232;2022-08-25T02:29:30;5.20;;;4.60;;
4460;SDS011;2243;48.812;9.232;2022-08-25T02:32:02;7.83;;;4.43;;
4460;SDS011;2243;48.812;9.232;2022-08-25T02:34:33;4.60;;;4.20;;
4460;SDS011;2243;48.812;9.232;2022-08-25T02:37:04;4.50;;;4.20;;
4460;SDS011;2243;48.812;9.232;2022-08-25T02:39:35;4.90;;;4.60;;
4460;SDS011;2243;48.812;9.232;2022-08-25T02:42:06;6.33;;;4.60;;
4460;SDS011;2243;48.812;9.232;2022-08-25T02:44:37;5.23;;;4.73;;
4460;SDS011;2243;48.812;9.232;2022-08-25T02:47:08;6.40;;;4.90;;
4460;SDS011;2243;48.812;9.232;2022-08-25T02:49:39;5.47;;;4.83;;
4460;SDS011;2243;48.812;9.232;2022-08-25T02:52:11;4.93;;;4.43;;
4460;SDS011;2243;48.812;9.232;2022-08-25T02:54:42;5.93;;;4.80;;
4460;SDS011;2243;48.812;9.232;2022-08-25T02:57:13;5.57;;;5.07;;
4460;SDS011;2243;48.812;9.232;2022-08-25T02:59:45;5.33;;;4.80;;
4460;SDS011;2243;48.812;9.232;2022-08-25T03:02:17;5.87;;;5.33;;
4460;SDS011;2243;48.812;9.232;2022-08-25T03:04:48;5.33;;;4.93;;
4460;SDS011;2243;48.812;9.232;2022-08-25T03:07:24;6.53;;;4.27;;
4460;SDS011;2243;48.812;9.232;2022-08-25T03:09:55;5.93;;;5.43;;
4460;SDS011;2243;48.812;9.232;2022-08-25T03:12:26;5.53;;;5.13;;
4460;SDS011;2243;48.812;9.232;2022-08-25T03:14:57;6.30;;;5.07;;
4460;SDS011;2243;48.812;9.232;2022-08-25T03:17:27;5.97;;;5.10;;
4460;SDS011;2243;48.812;9.232;2022-08-25T03:19:59;5.27;;;4.80;;
4460;SDS011;2243;48.812;9.232;2022-08-25T03:22:30;5.30;;;4.87;;
4460;SDS011;2243;48.812;9.232;2022-08-25T03:25:01;5.57;;;5.07;;
4460;SDS011;2243;48.812;9.232;2022-08-25T03:27:53;4.80;;;4.40;;
4460;SDS011;2243;48.812;9.232;2022-08-25T03:30:25;4.77;;;4.37;;
4460;SDS011;2243;48.812;9.232;2022-08-25T03:32:57;5.17;;;4.40;;
4460;SDS011;2243;48.812;9.232;2022-08-25T03:35:28;5.50;;;5.00;;
4460;SDS011;2243;48.812;9.232;2022-08-25T03:38:00;5.60;;;5.00;;
4460;SDS011;2243;48.812;9.232;2022-08-25T03:40:32;5.80;;;4.93;;
4460;SDS011;2243;48.812;9.232;2022-08-25T03:43:03;6.33;;;5.60;;
4460;SDS011;2243;48.812;9.232;2022-08-25T03:45:38;7.07;;;5.43;;
4460;SDS011;2243;48.812;9.232;2022-08-25T03:48:12;6.57;;;5.80;;
4460;SDS011;2243;48.812;9.232;2022-08-25T03:50:46;7.17;;;5.17;;
4460;SDS011;2243;48.812;9.232;2022-08-25T03:53:21;6.20;;;5.70;;
4460;SDS011;2243;48.812;9.232;2022-08-25T03:55:52;7.03;;;6.43;;
4460;SDS011;2243;48.812;9.232;2022-08-25T03:58:23;6.23;;;5.63;;
4460;SDS011;2243;48.812;9.232;2022-08-25T04:00:54;6.70;;;6.10;;
4460;SDS011;2243;48.812;9.232;2022-08-25T04:03:29;6.70;;;5.97;;
4460;SDS011;2243;48.812;9.232;2022-08-25T04:06:01;9.43;;;5.93;;
4460;SDS011;2243;48.812;9.232;2022-08-25T04:08:34;8.80;;;6.53;;
4460;SDS011;2243;48.812;9.232;2022-08-25T04:11:17;6.63;;;5.33;;
4460;SDS011;2243;48.812;9.232;2022-08-25T04:13:51;6.17;;;5.67;;
4460;SDS011;2243;48.812;9.232;2022-08-25T04:16:28;10.73;;;6.13;;
4460;SDS011;2243;48.812;9.232;2022-08-25T04:19:04;6.53;;;5.93;;
4460;SDS011;2243;48.812;9.232;2022-08-25T04:21:39;7.83;;;7.03;;
4460;SDS011;2243;48.812;9.232;2022-08-25T04:24:11;6.37;;;5.77;;
4460;SDS011;2243;48.812;9.232;2022-08-25T04:26:44;7.80;;;6.70;;
4460;SDS011;2243;48.812;9.232;2022-08-25T04:29:20;7.27;;;5.30;;
4460;SDS011;2243;48.812;9.232;2022-08-25T04:31:53;6.53;;;5.97;;
4460;SDS011;2243;48.812;9.232;2022-08-25T04:34:25;7.30;;;6.60;;
4460;SDS011;2243;48.812;9.232;2022-08-25T04:37:01;10.70;;;6.30;;
4460;SDS011;2243;48.812;9.232;2022-08-25T04:39:34;8.50;;;6.30;;
4460;SDS011;2243;48.812;9.232;2022-08-25T04:42:06;10.20;;;6.83;;
4460;SDS011;2243;48.812;9.232;2022-08-25T04:44:37;8.93;;;6.13;;
4460;SDS011;2243;48.812;9.232;2022-08-25T04:47:08;7.87;;;6.27;;
4460;SDS011;2243;48.812;9.232;2022-08-25T04:49:40;12.37;;;6.57;;
4460;SDS011;2243;48.812;9.232;2022-08-25T04:52:11;11.00;;;6.87;;
4460;SDS011;2243;48.812;9.232;2022-08-25T04:54:43;7.27;;;6.47;;
4460;SDS011;2243;48.812;9.232;2022-08-25T04:57:14;8.07;;;6.50;;
4460;SDS011;2243;48.812;9.232;2022-08-25T04:59:45;8.00;;;6.30;;
4460;SDS011;2243;48.812;9.232;2022-08-25T05:02:16;9.80;;;6.53;;
4460;SDS011;2243;48.812;9.232;2022-08-25T05:04:48;6.90;;;5.93;;
4460;SDS011;2243;48.812;9.232;2022-08-25T05:07:19;8.97;;;7.37;;
4460;SDS011;2243;48.812;9.232;2022-08-25T05:09:50;7.23;;;6.50;;
4460;SDS011;2243;48.812;9.232;2022-08-25T05:12:21;11.57;;;7.63;;
4460;SDS011;2243;48.812;9.232;2022-08-25T05:14:52;11.20;;;6.40;;
4460;SDS011;2243;48.812;9.232;2022-08-25T05:17:24;7.23;;;6.40;;
4460;SDS011;2243;48.812;9.232;2022-08-25T05:19:54;10.40;;;6.57;;
4460;SDS011;2243;48.812;9.232;2022-08-25T05:22:25;6.37;;;5.77;;
4460;SDS011;2243;48.812;9.232;2022-08-25T05:24:56;6.80;;;5.83;;
4460;SDS011;2243;48.812;9.232;2022-08-25T05:27:27;9.00;;;6.70;;
4460;SDS011;2243;48.812;9.232;2022-08-25T05:29:58;9.53;;;6.27;;
4460;SDS011;2243;48.812;9.232;2022-08-25T05:32:29;12.57;;;6.90;;
4460;SDS011;2243;48.812;9.232;2022-08-25T05:35:00;8.10;;;6.57;;
4460;SDS011;2243;48.812;9.232;2022-08-25T05:37:31;6.80;;;6.20;;
4460;SDS011;2243;48.812;9.232;2022-08-25T05:40:06;10.23;;;8.07;;
4460;SDS011;2243;48.812;9.232;2022-08-25T05:42:38;9.17;;;6.93;;
4460;SDS011;2243;48.812;9.232;2022-08-25T05:45:09;7.03;;;6.33;;
4460;SDS011;2243;48.812;9.232;2022-08-25T05:47:49;7.60;;;6.90;;
4460;SDS011;2243;48.812;9.232;2022-08-25T05:50:20;8.00;;;7.20;;
4460;SDS011;2243;48.812;9.232;2022-08-25T05:52:52;9.13;;;6.67;;
4460;SDS011;2243;48.812;9.232;2022-08-25T05:55:23;9.17;;;6.60;;
4460;SDS011;2243;48.812;9.232;2022-08-25T05:57:54;8.10;;;7.03;;
4460;SDS011;2243;48.812;9.232;2022-08-25T06:00:25;8.67;;;7.20;;
4460;SDS011;2243;48.812;9.232;2022-08-25T06:02:56;10.63;;;7.03;;
4460;SDS011;2243;48.812;9.232;2022-08-25T06:05:27;8.80;;;6.90;;
4460;SDS011;2243;48.812;9.232;2022-08-25T06:07:58;17.87;;;7.33;;
4460;SDS011;2243;48.812;9.232;2022-08-25T06:10:29;13.60;;;7.47;;
4460;SDS011;2243;48.812;9.232;2022-08-25T06:13:00;8.70;;;6.73;;
4460;SDS011;2243;48.812;9.232;2022-08-25T06:15:35;8.90;;;6.50;;
4460;SDS011;2243;48.812;9.232;2022-08-25T06:18:06;9.37;;;7.50;;
4460;SDS011;2243;48.812;9.232;2022-08-25T06:20:37;7.97;;;6.50;;
4460;SDS011;2243;48.812;9.232;2022-08-25T06:23:08;8.07;;;7.27;;
4460;SDS011;2243;48.812;9.232;2022-08-25T06:25:39;10.00;;;8.23;;
4460;SDS011;2243;48.812;9.232;2022-08-25T06:28:10;7.77;;;6.97;;
4460;SDS011;2243;48.812;9.232;2022-08-25T06:30:41;8.57;;;7.47;;
4460;SDS011;2243;48.812;9.232;2022-08-25T06:33:12;7.30;;;6.20;;
4460;SDS011;2243;48.812;9.232;2022-08-25T06:35:44;11.03;;;8.53;;
4460;SDS011;2243;48.812;9.232;2022-08-25T06:38:15;7.33;;;6.53;;
4460;SDS011;2243;48.812;9.232;2022-08-25T06:40:46;8.77;;;6.90;;
4460;SDS011;2243;48.812;9.232;2022-08-25T06:43:19;9.17;;;7.60;;
4460;SDS011;2243;48.812;9.232;2022-08-25T06:45:50;9.80;;;7.63;;
4460;SDS011;2243;48.812;9.232;2022-08-25T06:48:21;7.63;;;6.83;;
4460;SDS011;2243;48.812;9.232;2022-08-25T06:50:53;12.80;;;8.20;;
4460;SDS011;2243;48.812;9.232;2022-08-25T06:53:24;9.27;;;7.40;;
4460;SDS011;2243;48.812;9.232;2022-08-25T06:55:55;8.90;;;7.57;;
4460;SDS011;2243;48.812;9.232;2022-08-25T06:58:30;8.03;;;7.23;;
4460;SDS011;2243;48.812;9.232;2022-08-25T07:03:48;8.80;;;6.87;;
4460;SDS011;2243;48.812;9.232;2022-08-25T07:06:21;8.80;;;7.50;;
4460;SDS011;2243;48.812;9.232;2022-08-25T07:08:54;7.57;;;6.50;;
4460;SDS011;2243;48.812;9.232;2022-08-25T07:11:25;8.57;;;7.67;;
4460;SDS011;2243;48.812;9.232;2022-08-25T07:13:56;15.73;;;7.50;;
4460;SDS011;2243;48.812;9.232;2022-08-25T07:16:29;9.13;;;7.80;;
4460;SDS011;2243;48.812;9.232;2022-08-25T07:19:01;8.63;;;7.40;;
4460;SDS011;2243;48.812;9.232;2022-08-25T07:21:33;8.20;;;7.40;;
4460;SDS011;2243;48.812;9.232;2022-08-25T07:24:07;9.43;;;7.73;;
4460;SDS011;2243;48.812;9.232;2022-08-25T07:26:41;8.50;;;7.33;;
4460;SDS011;2243;48.812;9.232;2022-08-25T07:29:18;9.23;;;7.27;;
4460;SDS011;2243;48.812;9.232;2022-08-25T07:32:02;8.43;;;7.40;;
4460;SDS011;2243;48.812;9.232;2022-08-25T07:34:34;9.00;;;6.80;;
4460;SDS011;2243;48.812;9.232;2022-08-25T07:37:24;12.17;;;7.03;;
4460;SDS011;2243;48.812;9.232;2022-08-25T07:40:16;7.07;;;6.37;;
4460;SDS011;2243;48.812;9.232;2022-08-25T07:42:53;7.80;;;7.03;;
4460;SDS011;2243;48.812;9.232;2022-08-25T07:45:29;7.53;;;6.80;;
4460;SDS011;2243;48.812;9.232;2022-08-25T07:48:03;7.53;;;6.70;;
4460;SDS011;2243;48.812;9.232;2022-08-25T07:50:40;7.90;;;6.50;;
4460;SDS011;2243;48.812;9.232;2022-08-25T07:53:15;6.70;;;6.00;;
4460;SDS011;2243;48.812;9.232;2022-08-25T07:55:46;6.27;;;5.67;;
4460;SDS011;2243;48.812;9.232;2022-08-25T07:58:17;6.90;;;6.20;;
4460;SDS011;2243;48.812;9.232;2022-08-25T08:00:49;6.67;;;6.07;;
4460;SDS011;2243;48.812;9.232;2022-08-25T08:03:22;6.80;;;6.10;;
4460;SDS011;2243;48.812;9.232;2022-08-25T08:06:13;7.93;;;7.13;;
4460;SDS011;2243;48.812;9.232;2022-08-25T08:08:47;7.07;;;6.37;;
4460;SDS011;2243;48.812;9.232;2022-08-25T08:11:25;10.80;;;6.80;;
4460;SDS011;2243;48.812;9.232;2022-08-25T08:14:00;8.33;;;6.97;;
4460;SDS011;2243;48.812;9.232;2022-08-25T08:16:31;6.13;;;5.60;;
4460;SDS011;2243;48.812;9.232;2022-08-25T08:19:04;7.63;;;6.93;;
4460;SDS011;2243;48.812;9.232;2022-08-25T08:21:35;6.90;;;6.30;;
4460;SDS011;2243;48.812;9.232;2022-08-25T08:24:07;9.20;;;5.83;;
4460;SDS011;2243;48.812;9.232;2022-08-25T08:26:58;8.90;;;6.77;;
4460;SDS011;2243;48.812;9.232;2022-08-25T08:29:29;7.13;;;6.47;;
4460;SDS011;2243;48.812;9.232;2022-08-25T08:32:01;6.70;;;6.10;;
4460;SDS011;2243;48.812;9.232;2022-08-25T08:34:37;7.40;;;6.03;;
4460;SDS011;2243;48.812;9.232;2022-08-25T08:37:29;7.10;;;5.80;;
4460;SDS011;2243;48.812;9.232;2022-08-25T08:40:00;6.90;;;6.20;;
4460;SDS011;2243;48.812;9.232;2022-08-25T08:45:50;6.43;;;5.33;;
4460;SDS011;2243;48.812;9.232;2022-08-25T08:51:11;8.80;;;6.50;;
4460;SDS011;2243;48.812;9.232;2022-08-25T08:53:58;6.27;;;5.67;;
4460;SDS011;2243;48.812;9.232;2022-08-25T08:56:46;6.27;;;5.73;;
4460;SDS011;2243;48.812;9.232;2022-08-25T08:59:22;6.57;;;5.20;;
4460;SDS011;2243;48.812;9.232;2022-08-25T09:02:01;6.43;;;5.93;;
4460;SDS011;2243;48.812;9.232;2022-08-25T09:04:47;6.40;;;5.80;;
4460;SDS011;2243;48.812;9.232;2022-08-25T09:07:35;6.30;;;5.70;;
4460;SDS011;2243;48.812;9.232;2022-08-25T09:10:25;6.93;;;6.33;;
4460;SDS011;2243;48.812;9.232;2022-08-25T09:19:41;8.10;;;6.57;;
4460;SDS011;2243;48.812;9.232;2022-08-25T09:22:54;5.80;;;5.30;;
4460;SDS011;2243;48.812;9.232;2022-08-25T09:28:31;6.17;;;5.63;;
4460;SDS011;2243;48.812;9.232;2022-08-25T09:34:06;7.57;;;6.87;;
4460;SDS011;2243;48.812;9.232;2022-08-25T09:36:46;6.30;;;5.70;;
4460;SDS011;2243;48.812;9.232;2022-08-25T09:39:22;6.07;;;5.63;;
4460;SDS011;2243;48.812;9.232;2022-08-25T09:41:56;6.63;;;6.00;;
4460;SDS011;2243;48.812;9.232;2022-08-25T09:44:31;8.90;;;6.40;;
4460;SDS011;2243;48.812;9.232;2022-08-25T09:47:18;7.23;;;5.90;;
4460;SDS011;2243;48.812;9.232;2022-08-25T09:49:57;9.83;;;6.07;;
4460;SDS011;2243;48.812;9.232;2022-08-25T09:52:35;8.23;;;5.77;;
4460;SDS011;2243;48.812;9.232;2022-08-25T09:57:48;5.23;;;4.73;;
4460;SDS011;2243;48.812;9.232;2022-08-25T10:03:10;6.20;;;5.70;;
4460;SDS011;2243;48.812;9.232;2022-08-25T10:08:50;6.33;;;5.83;;
4460;SDS011;2243;48.812;9.232;2022-08-25T10:17:32;7.20;;;5.43;;
4460;SDS011;2243;48.812;9.232;2022-08-25T10:22:40;6.03;;;5.43;;
4460;SDS011;2243;48.812;9.232;2022-08-25T10:25:14;5.63;;;5.23;;
4460;SDS011;2243;48.812;9.232;2022-08-25T10:34:00;6.70;;;6.17;;
4460;SDS011;2243;48.812;9.232;2022-08-25T10:36:52;7.07;;;6.43;;
4460;SDS011;2243;48.812;9.232;2022-08-25T10:39:33;5.90;;;5.40;;
4460;SDS011;2243;48.812;9.232;2022-08-25T10:42:43;5.27;;;4.97;;
4460;SDS011;2243;48.812;9.232;2022-08-25T10:45:48;8.43;;;5.80;;
4460;SDS011;2243;48.812;9.232;2022-08-25T10:48:58;5.90;;;5.40;;
4460;SDS011;2243;48.812;9.232;2022-08-25T10:52:11;5.70;;;5.07;;
4460;SDS011;2243;48.812;9.232;2022-08-25T10:55:00;5.77;;;5.13;;
4460;SDS011;2243;48.812;9.232;2022-08-25T10:58:07;6.17;;;5.33;;
4460;SDS011;2243;48.812;9.232;2022-08-25T11:00:47;5.10;;;4.70;;
4460;SDS011;2243;48.812;9.232;2022-08-25T11:06:49;5.13;;;4.70;;
4460;SDS011;2243;48.812;9.232;2022-08-25T11:09:44;4.97;;;4.67;;
4460;SDS011;2243;48.812;9.232;2022-08-25T11:12:30;6.40;;;5.13;;
4460;SDS011;2243;48.812;9.232;2022-08-25T11:15:16;6.20;;;4.80;;
4460;SDS011;2243;48.812;9.232;2022-08-25T11:18:01;4.13;;;3.93;;
4460;SDS011;2243;48.812;9.232;2022-08-25T11:20:45;5.40;;;5.00;;
4460;SDS011;2243;48.812;9.232;2022-08-25T11:23:52;4.77;;;4.47;;
4460;SDS011;2243;48.812;9.232;2022-08-25T11:26:56;5.20;;;4.67;;
4460;SDS011;2243;48.812;9.232;2022-08-25T11:29:29;4.67;;;4.37;;
4460;SDS011;2243;48.812;9.232;2022-08-25T11:32:06;3.33;;;3.13;;
4460;SDS011;2243;48.812;9.232;2022-08-25T11:34:39;3.40;;;3.20;;
4460;SDS011;2243;48.812;9.232;2022-08-25T11:37:18;3.80;;;3.50;;
4460;SDS011;2243;48.812;9.232;2022-08-25T11:40:00;3.60;;;3.40;;
4460;SDS011;2243;48.812;9.232;2022-08-25T11:43:09;3.83;;;3.33;;
4460;SDS011;2243;48.812;9.232;2022-08-25T11:49:34;3.30;;;3.20;;
4460;SDS011;2243;48.812;9.232;2022-08-25T11:52:42;3.80;;;3.50;;
4460;SDS011;2243;48.812;9.232;2022-08-25T12:01:02;4.30;;;3.90;;
4460;SDS011;2243;48.812;9.232;2022-08-25T12:17:04;3.30;;;3.20;;
4460;SDS011;2243;48.812;9.232;2022-08-25T12:19:50;4.17;;;3.87;;
4460;SDS011;2243;48.812;9.232;2022-08-25T12:38:13;4.43;;;4.13;;
4460;SDS011;2243;48.812;9.232;2022-08-25T12:48:58;3.40;;;3.20;;
4460;SDS011;2243;48.812;9.232;2022-08-25T13:00:46;3.73;;;3.27;;
4460;SDS011;2243;48.812;9.232;2022-08-25T13:16:23;3.43;;;3.13;;
4460;SDS011;2243;48.812;9.232;2022-08-25T13:19:03;3.40;;;3.20;;
4460;SDS011;2243;48.812;9.232;2022-08-25T13:21:50;3.43;;;3.23;;
4460;SDS011;2243;48.812;9.232;2022-08-25T13:24:25;3.33;;;3.10;;
4460;SDS011;2243;48.812;9.232;2022-08-25T13:27:21;3.13;;;3.03;;
4460;SDS011;2243;48.812;9.232;2022-08-25T13:30:02;4.10;;;3.40;;
4460;SDS011;2243;48.812;9.232;2022-08-25T13:32:37;3.40;;;3.20;;
4460;SDS011;2243;48.812;9.232;2022-08-25T13:35:19;3.33;;;3.03;;
4460;SDS011;2243;48.812;9.232;2022-08-25T13:38:14;3.40;;;3.30;;
4460;SDS011;2243;48.812;9.232;2022-08-25T13:40:48;3.53;;;3.33;;
4460;SDS011;2243;48.812;9.232;2022-08-25T13:43:25;3.10;;;3.00;;
4460;SDS011;2243;48.812;9.232;2022-08-25T13:46:05;2.73;;;2.63;;
4460;SDS011;2243;48.812;9.232;2022-08-25T13:48:42;3.03;;;2.93;;
4460;SDS011;2243;48.812;9.232;2022-08-25T13:51:23;3.10;;;2.90;;
4460;SDS011;2243;48.812;9.232;2022-08-25T13:54:07;3.20;;;3.00;;
4460;SDS011;2243;48.812;9.232;2022-08-25T13:57:14;3.00;;;2.90;;
4460;SDS011;2243;48.812;9.232;2022-08-25T14:00:01;3.00;;;2.90;;
4460;SDS011;2243;48.812;9.232;2022-08-25T14:02:48;3.20;;;3.10;;
4460;SDS011;2243;48.812;9.232;2022-08-25T14:06:02;3.90;;;3.70;;
4460;SDS011;2243;48.812;9.232;2022-08-25T14:08:38;3.27;;;3.07;;
4460;SDS011;2243;48.812;9.232;2022-08-25T14:14:06;3.57;;;3.47;;
4460;SDS011;2243;48.812;9.232;2022-08-25T14:19:27;3.87;;;3.23;;
4460;SDS011;2243;48.812;9.232;2022-08-25T14:22:05;3.37;;;3.17;;
4460;SDS011;2243;48.812;9.232;2022-08-25T14:24:36;3.17;;;2.97;;
4460;SDS011;2243;48.812;9.232;2022-08-25T14:27:10;4.50;;;3.30;;
4460;SDS011;2243;48.812;9.232;2022-08-25T14:29:41;3.37;;;3.20;;
4460;SDS011;2243;48.812;9.232;2022-08-25T14:32:14;3.17;;;3.07;;
4460;SDS011;2243;48.812;9.232;2022-08-25T14:34:46;3.53;;;3.33;;
4460;SDS011;2243;48.812;9.232;2022-08-25T14:37:17;3.37;;;3.07;;
4460;SDS011;2243;48.812;9.232;2022-08-25T14:39:54;3.87;;;3.60;;
4460;SDS011;2243;48.812;9.232;2022-08-25T14:42:29;3.53;;;3.33;;
4460;SDS011;2243;48.812;9.232;2022-08-25T14:45:12;3.93;;;3.63;;
4460;SDS011;2243;48.812;9.232;2022-08-25T14:47:45;4.40;;;4.20;;
4460;SDS011;2243;48.812;9.232;2022-08-25T14:51:07;5.20;;;3.77;;
4460;SDS011;2243;48.812;9.232;2022-08-25T14:53:31;3.37;;;3.03;;
4460;SDS011;2243;48.812;9.232;2022-08-25T14:56:08;3.33;;;3.10;;
4460;SDS011;2243;48.812;9.232;2022-08-25T14:58:45;2.93;;;2.83;;
4460;SDS011;2243;48.812;9.232;2022-08-25T15:01:23;6.27;;;3.17;;
4460;SDS011;2243;48.812;9.232;2022-08-25T15:04:09;4.03;;;3.67;;
4460;SDS011;2243;48.812;9.232;2022-08-25T15:07:08;3.33;;;3.13;;
4460;SDS011;2243;48.812;9.232;2022-08-25T15:10:09;3.57;;;3.37;;
4460;SDS011;2243;48.812;9.232;2022-08-25T15:12:51;4.20;;;3.90;;
4460;SDS011;2243;48.812;9.232;2022-08-25T15:15:36;3.97;;;3.27;;
4460;SDS011;2243;48.812;9.232;2022-08-25T15:18:22;3.30;;;3.00;;
4460;SDS011;2243;48.812;9.232;2022-08-25T15:20:54;4.30;;;3.80;;
4460;SDS011;2243;48.812;9.232;2022-08-25T15:23:26;5.63;;;3.30;;
4460;SDS011;2243;48.812;9.232;2022-08-25T15:25:58;3.93;;;3.67;;
4460;SDS011;2243;48.812;9.232;2022-08-25T15:28:30;3.93;;;3.63;;
4460;SDS011;2243;48.812;9.232;2022-08-25T15:31:01;4.07;;;3.87;;
4460;SDS011;2243;48.812;9.232;2022-08-25T15:33:33;4.47;;;4.17;;
4460;SDS011;2243;48.812;9.232;2022-08-25T15:36:11;3.60;;;3.40;;
4460;SDS011;2243;48.812;9.232;2022-08-25T15:38:52;4.43;;;3.63;;
4460;SDS011;2243;48.812;9.232;2022-08-25T15:41:23;3.67;;;3.47;;
4460;SDS011;2243;48.812;9.232;2022-08-25T15:43:57;3.33;;;3.03;;
4460;SDS011;2243;48.812;9.232;2022-08-25T15:46:28;6.20;;;3.57;;
4460;SDS011;2243;48.812;9.232;2022-08-25T15:49:01;3.23;;;3.03;;
4460;SDS011;2243;48.812;9.232;2022-08-25T15:51:33;3.33;;;3.17;;
4460;SDS011;2243;48.812;9.232;2022-08-25T15:54:04;3.37;;;3.17;;
4460;SDS011;2243;48.812;9.232;2022-08-25T15:56:35;3.93;;;3.03;;
4460;SDS011;2243;48.812;9.232;2022-08-25T15:59:24;3.10;;;2.80;;
4460;SDS011;2243;48.812;9.232;2022-08-25T16:01:59;3.10;;;2.90;;
4460;SDS011;2243;48.812;9.232;2022-08-25T16:04:44;3.90;;;3.70;;
4460;SDS011;2243;48.812;9.232;2022-08-25T16:07:24;5.60;;;3.33;;
4460;SDS011;2243;48.812;9.232;2022-08-25T16:10:02;3.40;;;3.20;;
4460;SDS011;2243;48.812;9.232;2022-08-25T16:12:36;3.33;;;3.22;;
4460;SDS011;2243;48.812;9.232;2022-08-25T16:15:11;3.40;;;3.20;;
4460;SDS011;2243;48.812;9.232;2022-08-25T16:17:44;4.18;;;3.53;;
4460;SDS011;2243;48.812;9.232;2022-08-25T16:20:20;3.27;;;2.97;;
4460;SDS011;2243;48.812;9.232;2022-08-25T16:22:52;3.60;;;3.40;;
4460;SDS011;2243;48.812;9.232;2022-08-25T16:25:24;3.50;;;3.03;;
4460;SDS011;2243;48.812;9.232;2022-08-25T16:27:56;3.10;;;3.00;;
4460;SDS011;2243;48.812;9.232;2022-08-25T16:30:30;3.67;;;3.38;;
4460;SDS011;2243;48.812;9.232;2022-08-25T16:33:01;3.20;;;3.00;;
4460;SDS011;2243;48.812;9.232;2022-08-25T16:35:35;3.10;;;3.00;;
4460;SDS011;2243;48.812;9.232;2022-08-25T16:38:12;3.13;;;2.92;;
4460;SDS011;2243;48.812;9.232;2022-08-25T16:40:52;5.85;;;3.33;;
4460;SDS011;2243;48.812;9.232;2022-08-25T16:43:24;3.10;;;3.00;;
4460;SDS011;2243;48.812;9.232;2022-08-25T16:46:17;4.88;;;3.10;;
4460;SDS011;2243;48.812;9.232;2022-08-25T16:49:00;3.15;;;3.05;;
4460;SDS011;2243;48.812;9.232;2022-08-25T16:51:35;2.60;;;2.50;;
4460;SDS011;2243;48.812;9.232;2022-08-25T16:54:26;3.30;;;3.10;;
4460;SDS011;2243;48.812;9.232;2022-08-25T16:57:20;2.90;;;2.80;;
4460;SDS011;2243;48.812;9.232;2022-08-25T16:59:55;5.00;;;3.03;;
4460;SDS011;2243;48.812;9.232;2022-08-25T17:02:44;3.50;;;3.30;;
4460;SDS011;2243;48.812;9.232;2022-08-25T17:05:16;5.85;;;2.90;;
4460;SDS011;2243;48.812;9.232;2022-08-25T17:07:47;4.30;;;4.10;;
4460;SDS011;2243;48.812;9.232;2022-08-25T17:10:40;3.10;;;3.00;;
4460;SDS011;2243;48.812;9.232;2022-08-25T17:13:12;3.57;;;3.37;;
4460;SDS011;2243;48.812;9.232;2022-08-25T17:15:44;3.67;;;3.47;;
4460;SDS011;2243;48.812;9.232;2022-08-25T17:18:24;3.33;;;3.13;;
4460;SDS011;2243;48.812;9.232;2022-08-25T17:21:02;4.30;;;3.70;;
4460;SDS011;2243;48.812;9.232;2022-08-25T17:23:36;3.17;;;2.90;;
4460;SDS011;2243;48.812;9.232;2022-08-25T17:26:11;3.63;;;3.30;;
4460;SDS011;2243;48.812;9.232;2022-08-25T17:28:46;3.30;;;3.20;;
4460;SDS011;2243;48.812;9.232;2022-08-25T17:31:17;3.63;;;3.33;;
4460;SDS011;2243;48.812;9.232;2022-08-25T17:33:49;3.33;;;3.13;;
4460;SDS011;2243;48.812;9.232;2022-08-25T17:36:27;3.20;;;3.00;;
4460;SDS011;2243;48.812;9.232;2022-08-25T17:38:58;4.40;;;3.20;;
4460;SDS011;2243;48.812;9.232;2022-08-25T17:41:29;3.60;;;3.30;;
4460;SDS011;2243;48.812;9.232;2022-08-25T17:44:00;4.17;;;3.80;;
4460;SDS011;2243;48.812;9.232;2022-08-25T17:46:31;5.90;;;3.40;;
4460;SDS011;2243;48.812;9.232;2022-08-25T17:49:05;4.40;;;4.00;;
4460;SDS011;2243;48.812;9.232;2022-08-25T17:51:37;3.97;;;3.67;;
4460;SDS011;2243;48.812;9.232;2022-08-25T17:54:08;5.10;;;3.43;;
4460;SDS011;2243;48.812;9.232;2022-08-25T17:56:40;4.80;;;3.73;;
4460;SDS011;2243;48.812;9.232;2022-08-25T17:59:11;3.97;;;3.67;;
4460;SDS011;2243;48.812;9.232;2022-08-25T18:01:42;4.30;;;3.63;;
4460;SDS011;2243;48.812;9.232;2022-08-25T18:04:16;4.17;;;3.87;;
4460;SDS011;2243;48.812;9.232;2022-08-25T18:06:48;3.70;;;3.40;;
4460;SDS011;2243;48.812;9.232;2022-08-25T18:09:20;7.00;;;4.00;;
4460;SDS011;2243;48.812;9.232;2022-08-25T18:11:53;7.30;;;4.00;;
4460;SDS011;2243;48.812;9.232;2022-08-25T18:14:27;4.60;;;4.20;;
4460;SDS011;2243;48.812;9.232;2022-08-25T18:16:59;5.37;;;3.97;;